createdAt,value
2022-11-22T00:00:34.743Z,6.02
2022-11-22T00:03:01.593Z,6.03
2022-11-22T00:05:28.465Z,6.02
2022-11-22T00:07:55.406Z,6.10
2022-11-22T00:10:22.586Z,6.10
2022-11-22T00:12:49.885Z,6.07
2022-11-22T00:15:16.981Z,6.10
2022-11-22T00:17:45.128Z,6.17
2022-11-22T00:20:11.927Z,6.17
2022-11-22T00:22:44.189Z,6.16
2022-11-22T00:25:13.032Z,6.22
2022-11-22T00:27:40.242Z,6.27
2022-11-22T00:30:09.138Z,6.31
2022-11-22T00:32:36.737Z,6.36
2022-11-22T00:35:06.178Z,6.41
2022-11-22T00:37:33.115Z,6.43
2022-11-22T00:39:59.945Z,6.44
2022-11-22T00:42:26.952Z,6.46
2022-11-22T00:44:53.843Z,6.52
2022-11-22T00:47:20.780Z,6.56
2022-11-22T00:49:47.688Z,6.58
2022-11-22T00:52:16.066Z,6.56
2022-11-22T00:54:43.090Z,6.53
2022-11-22T00:57:09.842Z,6.53
2022-11-22T00:59:36.836Z,6.51
2022-11-22T01:02:03.621Z,6.50
2022-11-22T01:04:30.528Z,6.49
2022-11-22T01:06:57.291Z,6.49
2022-11-22T01:09:25.775Z,6.50
2022-11-22T01:11:52.871Z,6.51
2022-11-22T01:14:20.216Z,6.55
2022-11-22T01:16:48.061Z,6.60
2022-11-22T01:19:15.644Z,6.62
2022-11-22T01:21:42.454Z,6.62
2022-11-22T01:24:09.934Z,6.61
2022-11-22T01:26:38.254Z,6.61
2022-11-22T01:29:05.493Z,6.58
2022-11-22T01:31:32.845Z,6.58
2022-11-22T01:33:59.827Z,6.60
2022-11-22T01:36:27.223Z,6.65
2022-11-22T01:38:54.508Z,6.62
2022-11-22T01:41:22.347Z,6.61
2022-11-22T01:43:50.889Z,6.62
2022-11-22T01:46:32.680Z,6.63
2022-11-22T01:49:11.205Z,6.66
2022-11-22T01:51:42.966Z,6.76
2022-11-22T01:54:15.802Z,6.78
2022-11-22T01:56:47.989Z,6.73
2022-11-22T01:59:21.178Z,6.78
2022-11-22T02:01:48.900Z,6.81
2022-11-22T02:04:19.333Z,6.85
2022-11-22T02:06:56.919Z,6.86
2022-11-22T02:09:23.933Z,6.88
2022-11-22T02:11:55.941Z,6.96
2022-11-22T02:14:27.327Z,6.85
2022-11-22T02:16:54.691Z,6.88
2022-11-22T02:19:38.457Z,6.93
2022-11-22T02:22:24.965Z,6.97
2022-11-22T02:24:57.523Z,6.97
2022-11-22T02:27:25.813Z,7.05
2022-11-22T02:29:52.663Z,7.05
2022-11-22T02:32:19.878Z,7.05
2022-11-22T02:34:50.141Z,7.04
2022-11-22T02:37:24.862Z,6.96
2022-11-22T02:39:58.986Z,6.93
2022-11-22T02:42:31.178Z,6.85
2022-11-22T02:44:58.777Z,6.86
2022-11-22T02:47:26.070Z,6.89
2022-11-22T02:49:53.573Z,6.90
2022-11-22T02:52:20.658Z,6.92
2022-11-22T02:54:47.497Z,6.97
2022-11-22T02:57:14.497Z,6.91
2022-11-22T02:59:42.687Z,6.81
2022-11-22T03:02:09.586Z,6.80
2022-11-22T03:04:36.666Z,6.77
2022-11-22T03:07:03.634Z,6.73
2022-11-22T03:09:31.458Z,6.70
2022-11-22T03:11:58.732Z,6.73
2022-11-22T03:14:25.980Z,6.70
2022-11-22T03:16:54.403Z,6.70
2022-11-22T03:19:21.412Z,6.65
2022-11-22T03:21:48.764Z,6.65
2022-11-22T03:24:16.479Z,6.60
2022-11-22T03:26:47.443Z,6.64
2022-11-22T03:29:14.733Z,6.61
2022-11-22T03:31:41.608Z,6.58
2022-11-22T03:34:11.637Z,6.58
2022-11-22T03:36:38.725Z,6.60
2022-11-22T03:39:05.614Z,6.62
2022-11-22T03:41:32.389Z,6.62
2022-11-22T03:43:59.471Z,6.64
2022-11-22T03:46:26.885Z,6.70
2022-11-22T03:48:53.858Z,6.70
2022-11-22T03:51:22.755Z,6.71
2022-11-22T03:53:49.542Z,6.70
2022-11-22T03:56:16.400Z,6.73
2022-11-22T03:58:43.485Z,6.73
2022-11-22T04:01:16.309Z,6.72
2022-11-22T04:03:44.297Z,6.70
2022-11-22T04:06:11.355Z,6.71
2022-11-22T04:08:40.024Z,6.74
2022-11-22T04:11:06.875Z,6.76
2022-11-22T04:13:33.918Z,6.77
2022-11-22T04:16:00.789Z,6.78
2022-11-22T04:18:27.910Z,6.78
2022-11-22T04:20:54.718Z,6.75
2022-11-22T04:23:26.121Z,6.78
2022-11-22T04:25:56.773Z,6.69
2022-11-22T04:29:08.118Z,6.75
2022-11-22T04:31:13.081Z,6.78
2022-11-22T04:33:39.947Z,6.75
2022-11-22T04:36:13.021Z,6.79
2022-11-22T04:38:40.197Z,6.71
2022-11-22T04:41:08.378Z,6.76
2022-11-22T04:43:35.269Z,6.80
2022-11-22T04:46:02.440Z,6.75
2022-11-22T04:48:29.707Z,6.80
2022-11-22T04:50:57.881Z,6.82
2022-11-22T04:53:25.464Z,6.76
2022-11-22T04:55:52.491Z,6.68
2022-11-22T04:58:21.402Z,6.64
2022-11-22T05:00:48.825Z,6.66
2022-11-22T05:03:16.442Z,6.60
2022-11-22T05:05:45.154Z,6.65
2022-11-22T05:08:13.497Z,6.54
2022-11-22T05:10:41.064Z,6.43
2022-11-22T05:13:07.952Z,6.46
2022-11-22T05:15:36.328Z,6.42
2022-11-22T05:18:03.094Z,6.32
2022-11-22T05:20:29.952Z,6.40
2022-11-22T05:22:56.776Z,6.46
2022-11-22T05:25:25.713Z,6.45
2022-11-22T05:27:53.945Z,6.42
2022-11-22T05:30:22.123Z,6.42
2022-11-22T05:32:50.355Z,6.47
2022-11-22T05:35:17.478Z,6.45
2022-11-22T05:37:44.550Z,6.46
2022-11-22T05:40:15.632Z,6.44
2022-11-22T05:42:42.706Z,6.48
2022-11-22T05:45:10.203Z,6.51
2022-11-22T05:47:37.307Z,6.51
2022-11-22T05:50:06.965Z,6.55
2022-11-22T05:52:34.741Z,6.56
2022-11-22T05:55:02.001Z,6.54
2022-11-22T05:57:28.876Z,6.55
2022-11-22T05:59:55.706Z,6.61
2022-11-22T06:02:22.832Z,6.61
2022-11-22T06:04:49.837Z,6.60
2022-11-22T06:07:18.339Z,6.70
2022-11-22T06:09:45.372Z,6.74
2022-11-22T06:12:12.187Z,6.75
2022-11-22T06:14:43.166Z,6.71
2022-11-22T06:17:10.585Z,6.73
2022-11-22T06:19:37.713Z,6.73
2022-11-22T06:22:04.669Z,6.61
2022-11-22T06:24:33.204Z,6.53
2022-11-22T06:27:00.897Z,6.53
2022-11-22T06:29:29.600Z,6.56
2022-11-22T06:32:01.924Z,6.56
2022-11-22T06:34:30.392Z,6.51
2022-11-22T06:36:57.264Z,6.46
2022-11-22T06:39:24.070Z,6.48
2022-11-22T06:41:52.235Z,6.54
2022-11-22T06:44:19.270Z,6.54
2022-11-22T06:46:46.217Z,6.54
2022-11-22T06:49:13.051Z,6.46
2022-11-22T06:51:40.823Z,6.44
2022-11-22T06:54:11.657Z,6.55
2022-11-22T06:56:40.908Z,6.53
2022-11-22T06:59:10.267Z,6.49
2022-11-22T07:01:37.740Z,6.60
2022-11-22T07:04:05.643Z,6.75
2022-11-22T07:06:35.328Z,6.88
2022-11-22T07:09:05.954Z,6.95
2022-11-22T07:11:33.648Z,7.03
2022-11-22T07:14:07.646Z,7.06
2022-11-22T07:16:38.907Z,7.10
2022-11-22T07:19:07.502Z,6.97
2022-11-22T07:21:35.776Z,6.86
2022-11-22T07:24:06.025Z,6.94
2022-11-22T07:26:32.935Z,6.91
2022-11-22T07:28:59.933Z,6.89
2022-11-22T07:31:26.881Z,6.98
2022-11-22T07:33:56.163Z,6.95
2022-11-22T07:36:23.255Z,7.01
2022-11-22T07:38:51.243Z,7.05
2022-11-22T07:41:19.217Z,7.09
2022-11-22T07:43:46.738Z,7.03
2022-11-22T07:46:22.537Z,7.02
2022-11-22T07:48:50.564Z,7.05
2022-11-22T07:51:19.008Z,7.08
2022-11-22T07:53:46.984Z,7.17
2022-11-22T07:56:14.365Z,7.23
2022-11-22T07:58:41.317Z,7.30
2022-11-22T08:01:10.954Z,7.38
2022-11-22T08:03:38.753Z,7.43
2022-11-22T08:06:09.737Z,7.44
2022-11-22T08:08:38.656Z,7.46
2022-11-22T08:11:07.060Z,7.31
2022-11-22T08:13:35.426Z,7.34
2022-11-22T08:16:06.428Z,7.45
2022-11-22T08:18:34.014Z,7.48
2022-11-22T08:21:06.625Z,7.54
2022-11-22T08:23:33.950Z,7.61
2022-11-22T08:26:02.504Z,7.68
2022-11-22T08:28:29.526Z,7.75
2022-11-22T08:31:02.580Z,7.85
2022-11-22T08:33:29.689Z,7.93
2022-11-22T08:35:56.772Z,7.98
2022-11-22T08:38:24.312Z,7.91
2022-11-22T08:40:51.539Z,7.76
2022-11-22T08:43:20.122Z,7.74
2022-11-22T08:45:53.126Z,7.85
2022-11-22T08:48:22.468Z,7.94
2022-11-22T08:50:51.637Z,8.02
2022-11-22T08:53:18.628Z,8.14
2022-11-22T08:55:45.937Z,8.25
2022-11-22T08:58:13.217Z,8.32
2022-11-22T09:00:42.020Z,8.39
2022-11-22T09:03:09.215Z,8.41
2022-11-22T09:08:24.101Z,8.35
2022-11-22T09:10:51.297Z,8.42
2022-11-22T09:13:18.249Z,8.36
2022-11-22T09:15:46.619Z,8.42
2022-11-22T09:18:13.476Z,8.42
2022-11-22T09:20:40.283Z,8.43
2022-11-22T09:23:07.677Z,8.56
2022-11-22T09:25:34.545Z,8.70
2022-11-22T09:28:01.583Z,8.78
2022-11-22T09:30:28.803Z,8.97
2022-11-22T09:32:57.165Z,9.14
2022-11-22T09:35:23.961Z,9.36
2022-11-22T09:37:51.150Z,9.49
2022-11-22T09:40:18.030Z,9.52
2022-11-22T09:43:13.988Z,9.45
2022-11-22T09:46:14.509Z,9.32
2022-11-22T09:49:13.190Z,9.21
2022-11-22T09:51:49.205Z,9.29
2022-11-22T09:54:26.106Z,8.77
2022-11-22T09:56:59.133Z,8.72
2022-11-22T09:59:34.986Z,8.84
2022-11-22T10:02:18.069Z,8.74
2022-11-22T10:04:56.916Z,8.72
2022-11-22T10:07:34.420Z,8.66
2022-11-22T10:10:08.842Z,8.48
2022-11-22T10:12:47.419Z,8.36
2022-11-22T10:15:28.708Z,8.31
2022-11-22T10:18:01.869Z,8.24
2022-11-22T10:20:35.605Z,8.17
2022-11-22T10:23:07.240Z,8.19
2022-11-22T10:25:40.348Z,8.14
2022-11-22T10:28:17.091Z,8.08
2022-11-22T10:30:58.618Z,8.04
2022-11-22T10:33:39.956Z,8.19
2022-11-22T10:36:34.838Z,8.25
2022-11-22T10:39:19.242Z,8.18
2022-11-22T10:42:12.013Z,8.18
2022-11-22T10:44:51.148Z,8.22
2022-11-22T10:47:40.263Z,8.17
2022-11-22T10:50:20.202Z,8.11
2022-11-22T10:53:02.725Z,8.19
2022-11-22T10:55:49.351Z,8.11
2022-11-22T10:58:32.850Z,8.22
2022-11-22T11:01:17.490Z,8.24
2022-11-22T11:03:49.840Z,8.16
2022-11-22T11:06:43.601Z,8.22
2022-11-22T11:10:10.373Z,8.27
2022-11-22T11:12:38.719Z,8.39
2022-11-22T11:15:23.214Z,8.34
2022-11-22T11:18:02.640Z,8.43
2022-11-22T11:20:39.670Z,8.43
2022-11-22T11:23:16.292Z,8.43
2022-11-22T11:25:51.963Z,8.60
2022-11-22T11:28:27.130Z,8.61
2022-11-22T11:31:06.611Z,8.59
2022-11-22T11:33:42.252Z,8.55
2022-11-22T11:36:18.976Z,8.66
2022-11-22T11:38:57.428Z,8.77
2022-11-22T11:41:36.308Z,8.84
2022-11-22T11:44:39.095Z,8.83
2022-11-22T11:47:06.099Z,8.83
2022-11-22T11:49:35.135Z,8.91
2022-11-22T11:52:05.944Z,8.90
2022-11-22T11:54:42.929Z,8.91
2022-11-22T11:57:15.140Z,8.98
2022-11-22T11:59:47.119Z,9.04
2022-11-22T12:02:23.930Z,9.17
2022-11-22T12:04:59.653Z,9.06
2022-11-22T12:08:01.078Z,9.16
2022-11-22T12:10:43.936Z,9.28
2022-11-22T12:13:23.012Z,9.35
2022-11-22T12:15:58.803Z,9.30
2022-11-22T12:18:39.259Z,9.35
2022-11-22T12:21:22.463Z,9.30
2022-11-22T12:24:26.584Z,9.41
2022-11-22T12:26:53.771Z,9.43
2022-11-22T12:29:26.585Z,9.52
2022-11-22T12:32:02.344Z,9.40
2022-11-22T12:34:36.655Z,9.42
2022-11-22T12:37:12.833Z,9.45
2022-11-22T12:39:50.983Z,9.57
2022-11-22T12:42:28.876Z,9.48
2022-11-22T12:45:13.546Z,9.47
2022-11-22T12:47:50.808Z,9.45
2022-11-22T12:50:30.450Z,9.58
2022-11-22T12:53:12.522Z,9.59
2022-11-22T12:55:48.218Z,9.47
2022-11-22T12:58:24.217Z,9.67
2022-11-22T13:01:18.178Z,9.52
2022-11-22T13:03:56.279Z,9.53
2022-11-22T13:06:32.140Z,9.47
2022-11-22T13:09:07.979Z,9.43
2022-11-22T13:11:47.439Z,9.48
2022-11-22T13:14:21.547Z,9.46
2022-11-22T13:16:51.573Z,9.35
2022-11-22T13:19:26.074Z,9.43
2022-11-22T13:22:15.707Z,9.52
2022-11-22T13:25:08.105Z,9.42
2022-11-22T13:27:42.684Z,9.41
2022-11-22T13:30:21.242Z,9.46
2022-11-22T13:32:54.639Z,9.48
2022-11-22T13:35:31.894Z,9.45
2022-11-22T13:38:04.261Z,9.32
2022-11-22T13:40:34.692Z,9.32
2022-11-22T13:43:51.939Z,9.39
2022-11-22T13:46:58.156Z,9.27
2022-11-22T13:49:43.662Z,9.18
2022-11-22T13:52:45.846Z,9.28
2022-11-22T13:55:37.466Z,9.32
2022-11-22T13:58:53.017Z,9.25
2022-11-22T14:01:57.015Z,9.12
2022-11-22T14:04:44.927Z,9.17
2022-11-22T14:07:33.390Z,9.04
2022-11-22T14:10:03.579Z,9.04
2022-11-22T14:12:54.718Z,9.03
2022-11-22T14:16:01.520Z,8.96
2022-11-22T14:18:51.170Z,8.88
2022-11-22T14:21:46.447Z,8.88
2022-11-22T14:24:32.654Z,8.84
2022-11-22T14:27:15.847Z,8.84
2022-11-22T14:30:03.919Z,8.79
2022-11-22T14:32:48.661Z,8.76
2022-11-22T14:35:29.292Z,8.68
2022-11-22T14:38:32.189Z,8.69
2022-11-22T14:41:42.558Z,8.63
2022-11-22T14:44:17.891Z,8.53
2022-11-22T14:46:55.325Z,8.52
2022-11-22T14:49:36.958Z,8.55
2022-11-22T14:52:19.571Z,8.55
2022-11-22T14:54:55.893Z,8.54
2022-11-22T14:57:28.173Z,8.52
2022-11-22T15:00:18.955Z,8.50
2022-11-22T15:03:39.377Z,8.52
2022-11-22T15:09:10.061Z,8.50
2022-11-22T15:09:56.906Z,8.48
2022-11-22T15:13:06.837Z,8.46
2022-11-22T15:59:22.210Z,7.88
2022-11-22T16:01:56.047Z,7.86
2022-11-22T16:04:28.611Z,7.83
2022-11-22T16:06:58.692Z,7.85
2022-11-22T16:09:32.083Z,7.85
2022-11-22T16:12:00.774Z,7.88
2022-11-22T16:14:46.116Z,7.93
2022-11-22T16:17:28.554Z,7.98
2022-11-22T16:20:42.412Z,7.96
2022-11-22T16:23:24.124Z,8.03
2022-11-22T16:25:57.440Z,8.01
2022-11-22T16:28:32.625Z,8.07
2022-11-22T16:31:04.121Z,8.08
2022-11-22T16:33:33.306Z,8.03
2022-11-22T16:36:02.049Z,8.07
2022-11-22T16:38:29.207Z,8.11
2022-11-22T16:40:58.535Z,8.08
2022-11-22T16:43:32.724Z,8.06
2022-11-22T16:45:59.819Z,8.05
2022-11-22T16:48:32.564Z,8.08
2022-11-22T16:51:04.689Z,8.06
2022-11-22T16:53:41.254Z,8.05
2022-11-22T16:56:16.724Z,8.07
2022-11-22T16:58:44.083Z,8.06
2022-11-22T17:01:14.110Z,8.03
2022-11-22T17:03:42.224Z,8.00
2022-11-22T17:06:14.446Z,7.97
2022-11-22T17:08:41.708Z,7.98
2022-11-22T17:11:11.103Z,7.94
2022-11-22T17:13:37.944Z,7.92
2022-11-22T17:16:06.331Z,7.96
2022-11-22T17:18:33.678Z,7.96
2022-11-22T17:21:00.601Z,7.99
2022-11-22T17:23:34.124Z,8.00
2022-11-22T17:26:01.566Z,7.99
2022-11-22T17:28:28.573Z,8.01
2022-11-22T17:30:58.441Z,8.04
2022-11-22T17:33:25.532Z,8.02
2022-11-22T17:35:53.307Z,8.04
2022-11-22T17:38:20.210Z,8.03
2022-11-22T17:40:48.380Z,8.04
2022-11-22T17:43:15.912Z,8.00
2022-11-22T17:45:43.550Z,7.98
2022-11-22T17:48:12.101Z,7.96
2022-11-22T17:50:39.682Z,7.92
2022-11-22T17:53:06.613Z,7.87
2022-11-22T17:55:48.316Z,7.81
2022-11-22T17:58:22.131Z,7.81
2022-11-22T18:00:48.967Z,7.78
2022-11-22T18:03:15.909Z,7.78
2022-11-22T18:05:42.715Z,7.76
2022-11-22T18:08:12.953Z,7.72
2022-11-22T18:10:40.105Z,7.71
2022-11-22T18:13:20.801Z,7.70
2022-11-22T18:15:53.961Z,7.67
2022-11-22T18:18:54.633Z,7.62
2022-11-22T18:21:15.661Z,7.62
2022-11-22T18:23:44.340Z,7.63
2022-11-22T18:29:35.193Z,7.73
2022-11-22T18:31:52.324Z,7.73
2022-11-22T18:34:20.123Z,7.76
2022-11-22T18:37:04.732Z,7.73
2022-11-22T18:39:36.075Z,7.75
2022-11-22T18:42:04.361Z,7.75
2022-11-22T18:44:31.167Z,7.78
2022-11-22T18:46:59.539Z,7.82
2022-11-22T18:49:26.689Z,7.84
2022-11-22T18:51:54.012Z,7.84
2022-11-22T18:54:20.972Z,7.83
2022-11-22T18:56:48.140Z,7.78
2022-11-22T18:59:15.458Z,7.75
2022-11-22T19:01:42.641Z,7.75
2022-11-22T19:04:12.717Z,7.73
2022-11-22T19:06:39.673Z,7.72
2022-11-22T19:09:06.679Z,7.70
2022-11-22T19:11:33.627Z,7.67
2022-11-22T19:14:00.528Z,7.63
2022-11-22T19:16:27.483Z,7.60
2022-11-22T19:18:54.734Z,7.59
2022-11-22T19:21:25.470Z,7.57
2022-11-22T19:23:52.715Z,7.53
2022-11-22T19:26:21.954Z,7.53
2022-11-22T19:28:51.301Z,7.48
2022-11-22T19:31:20.769Z,7.46
2022-11-22T19:33:49.021Z,7.44
2022-11-22T19:36:19.190Z,7.41
2022-11-22T19:38:48.931Z,7.41
2022-11-22T19:41:18.663Z,7.42
2022-11-22T19:43:46.721Z,7.42
2022-11-22T19:46:14.460Z,7.33
2022-11-22T19:48:46.938Z,7.31
2022-11-22T19:51:15.766Z,7.28
2022-11-22T19:53:42.695Z,7.28
2022-11-22T19:56:15.320Z,7.20
2022-11-22T19:58:43.221Z,7.17
2022-11-22T20:01:12.819Z,7.18
2022-11-22T20:03:42.749Z,7.17
2022-11-22T20:06:12.552Z,7.17
2022-11-22T20:08:40.747Z,7.11
2022-11-22T20:11:10.566Z,7.13
2022-11-22T20:13:41.356Z,7.09
2022-11-22T20:16:12.070Z,7.10
2022-11-22T20:18:39.238Z,7.12
2022-11-22T20:21:08.426Z,7.09
2022-11-22T20:23:38.978Z,7.07
2022-11-22T20:26:11.628Z,7.07
2022-11-22T20:28:43.001Z,7.07
2022-11-22T20:31:13.369Z,7.02
2022-11-22T20:33:43.036Z,6.96
2022-11-22T20:36:13.222Z,6.94
2022-11-22T20:38:43.012Z,6.93
2022-11-22T20:41:13.739Z,6.95
2022-11-22T20:43:43.048Z,6.88
2022-11-22T20:46:12.943Z,6.89
2022-11-22T20:48:42.445Z,6.89
2022-11-22T20:51:12.507Z,6.90
2022-11-22T20:53:39.414Z,6.90
2022-11-22T20:56:07.102Z,6.88
2022-11-22T20:58:34.031Z,6.91
2022-11-22T21:01:08.190Z,6.87
2022-11-22T21:03:35.903Z,6.82
2022-11-22T21:06:03.964Z,6.90
2022-11-22T21:08:32.374Z,6.85
2022-11-22T21:11:04.407Z,6.85
2022-11-22T21:13:31.936Z,6.85
2022-11-22T21:16:15.605Z,6.82
2022-11-22T21:18:50.707Z,6.73
2022-11-22T21:21:17.541Z,6.68
2022-11-22T21:23:44.411Z,6.65
2022-11-22T21:26:11.403Z,6.62
2022-11-22T21:28:38.991Z,6.61
2022-11-22T21:31:08.002Z,6.58
2022-11-22T21:33:37.161Z,6.59
2022-11-22T21:36:06.751Z,6.51
2022-11-22T21:38:34.449Z,6.49
2022-11-22T21:41:24.368Z,6.51
2022-11-22T21:43:54.632Z,6.51
2022-11-22T21:46:22.988Z,6.55
2022-11-22T21:48:49.746Z,6.56
2022-11-22T21:51:16.782Z,6.55
2022-11-22T21:53:43.556Z,6.55
2022-11-22T21:56:10.490Z,6.52
2022-11-22T21:58:37.286Z,6.47
2022-11-22T22:01:08.271Z,6.46
2022-11-22T22:03:39.777Z,6.45
2022-11-22T22:06:07.280Z,6.48
2022-11-22T22:08:34.285Z,6.50
2022-11-22T22:11:01.365Z,6.53
2022-11-22T22:13:28.208Z,6.53
2022-11-22T22:15:56.549Z,6.54
2022-11-22T22:18:23.645Z,6.59
2022-11-22T22:21:01.370Z,6.61
2022-11-22T22:23:28.959Z,6.65
2022-11-22T22:26:00.131Z,6.62
2022-11-22T22:28:28.288Z,6.68
2022-11-22T22:31:07.223Z,6.76
2022-11-22T22:33:35.209Z,6.44
2022-11-22T22:36:04.738Z,6.40
2022-11-22T22:38:32.616Z,6.33
2022-11-22T22:41:02.313Z,6.41
2022-11-22T22:43:32.052Z,6.48
2022-11-22T22:46:06.407Z,6.43
2022-11-22T22:48:34.743Z,6.47
2022-11-22T22:51:07.998Z,6.43
2022-11-22T22:53:35.745Z,6.47
2022-11-22T22:56:03.149Z,6.46
2022-11-22T22:58:30.354Z,6.47
2022-11-22T23:01:05.361Z,6.48
2022-11-22T23:03:32.370Z,6.49
2022-11-22T23:05:59.649Z,6.46
2022-11-22T23:08:27.822Z,6.38
2022-11-22T23:10:54.843Z,6.37
2022-11-22T23:13:21.646Z,6.33
2022-11-22T23:15:58.198Z,6.36
2022-11-22T23:18:25.677Z,6.37
2022-11-22T23:20:52.633Z,6.35
2022-11-22T23:23:19.662Z,6.30
2022-11-22T23:25:47.823Z,6.25
2022-11-22T23:28:14.895Z,5.97
2022-11-22T23:30:41.835Z,5.96
2022-11-22T23:33:08.679Z,5.90
2022-11-22T23:35:35.972Z,5.91
2022-11-22T23:38:03.520Z,5.92
2022-11-22T23:40:30.523Z,5.98
2022-11-22T23:42:58.895Z,5.94
2022-11-22T23:45:25.891Z,5.98
2022-11-22T23:47:53.301Z,5.98
2022-11-22T23:50:20.284Z,5.90
2022-11-22T23:52:47.362Z,5.70
2022-11-22T23:55:14.673Z,5.57
2022-11-22T23:57:41.453Z,5.52
